TimeCDT,TemperatureF,Dew PointF,Humidity,Sea Level PressureIn,VisibilityMPH,Wind Direction,Wind SpeedMPH,Gust SpeedMPH,PrecipitationIn,Events,Conditions,WindDirDegrees,DateUTC
12:53 AM,71.1,69.1,93,29.96,10.0,Calm,Calm,-,N/A,,Clear,0,2013-07-11 05:53:00
1:53 AM,70.0,68.0,93,29.98,10.0,Calm,Calm,-,N/A,,Clear,0,2013-07-11 06:53:00
2:53 AM,70.0,68.0,93,29.99,10.0,Calm,Calm,-,N/A,,Clear,0,2013-07-11 07:53:00
3:53 AM,69.1,68.0,96,29.99,10.0,South,3.5,-,N/A,,Clear,190,2013-07-11 08:53:00
4:53 AM,68.0,68.0,100,29.97,10.0,South,3.5,-,N/A,,Clear,180,2013-07-11 09:53:00
5:53 AM,68.0,66.9,96,29.98,10.0,South,3.5,-,N/A,,Clear,180,2013-07-11 10:53:00
6:53 AM,69.1,68.0,96,29.98,10.0,Calm,Calm,-,N/A,,Clear,0,2013-07-11 11:53:00
7:53 AM,73.9,69.1,85,29.98,10.0,Calm,Calm,-,N/A,,Clear,0,2013-07-11 12:53:00
8:53 AM,81.0,70.0,69,29.99,10.0,Calm,Calm,-,N/A,,Clear,0,2013-07-11 13:53:00
9:53 AM,84.9,70.0,61,29.98,10.0,Calm,Calm,-,N/A,,Clear,0,2013-07-11 14:53:00
10:53 AM,87.1,70.0,57,29.98,10.0,ENE,5.8,-,N/A,,Clear,70,2013-07-11 15:53:00
11:53 AM,89.1,69.1,52,29.99,10.0,Variable,3.5,-,N/A,,Clear,0,2013-07-11 16:53:00
12:53 PM,93.0,68.0,44,29.97,10.0,North,4.6,-,N/A,,Partly Cloudy,350,2013-07-11 17:53:00
1:53 PM,93.0,69.1,45,29.97,10.0,NE,4.6,-,N/A,,Partly Cloudy,40,2013-07-11 18:53:00
2:53 PM,93.9,64.9,38,29.96,10.0,Variable,4.6,-,N/A,,Clear,0,2013-07-11 19:53:00
3:53 PM,96.1,64.0,35,29.94,10.0,ENE,8.1,-,N/A,,Partly Cloudy,60,2013-07-11 20:53:00
4:53 PM,91.9,63.0,38,29.93,10.0,NNE,3.5,-,N/A,,Partly Cloudy,30,2013-07-11 21:53:00
5:53 PM,93.9,61.0,33,29.91,10.0,North,4.6,-,N/A,,Clear,10,2013-07-11 22:53:00
6:53 PM,93.0,62.1,36,29.90,10.0,ENE,5.8,-,N/A,,Clear,60,2013-07-11 23:53:00
7:53 PM,89.1,64.0,43,29.91,10.0,East,5.8,-,N/A,,Clear,100,2013-07-12 00:53:00
8:53 PM,82.9,64.9,54,29.92,10.0,Calm,Calm,-,N/A,,Clear,0,2013-07-12 01:53:00
9:53 PM,75.9,66.0,71,29.94,10.0,Calm,Calm,-,N/A,,Clear,0,2013-07-12 02:53:00
10:53 PM,73.9,66.0,76,29.95,10.0,Calm,Calm,-,N/A,,Clear,0,2013-07-12 03:53:00
11:53 PM,71.1,66.0,84,29.96,10.0,Calm,Calm,-,N/A,,Clear,0,2013-07-12 04:53:00